Dublin, Texas
Current Conditions -  °F | °C
As of 9:15 AM on Friday 19 Dec 2014 (Local Time) from KSEP Reporting Station
Overcast Overcast  
Wind Chill: 39°   Ceiling: 300
Heat Index: 45°   Visibility: 4mi
Dew Point: 42°   Wind: 10mph
Humidity: 92%   Direction: 340°NNW
Pressure: 30.2"   Gusts: NA
Location:  32.09°N, 98.34°W
Report Text: KSEP 191515Z AUTO 34009KT 4SM OVC003 07/06 A3020 RMK AO2 T00700058
Loading
Personal Weather Stations






























Interactive Weather Map New forecast layout! Learn more

10-Day Weather Forecast

Advertisements
Track Severe Weather on mobile